createdAt,value
2023-04-05T00:02:14.211Z,102101.47
2023-04-05T00:04:50.552Z,102102.06
2023-04-05T00:07:21.787Z,102097.16
2023-04-05T00:09:51.674Z,102095.50
2023-04-05T00:12:21.114Z,102094.50
2023-04-05T00:14:50.759Z,102096.06
2023-04-05T00:17:22.775Z,102094.03
2023-04-05T00:19:58.058Z,102097.75
2023-04-05T00:22:36.020Z,102092.25
2023-04-05T00:25:05.343Z,102105.44
2023-04-05T00:27:34.812Z,102100.28
2023-04-05T00:30:04.254Z,102106.13
2023-04-05T00:32:36.367Z,102106.31
2023-04-05T00:35:05.966Z,102104.66
2023-04-05T00:37:35.373Z,102105.66
2023-04-05T00:40:05.274Z,102101.69
2023-04-05T00:42:34.576Z,102105.00
2023-04-05T00:45:03.910Z,102113.53
2023-04-05T00:47:35.967Z,102101.84
2023-04-05T00:50:05.667Z,102106.00
2023-04-05T00:52:37.917Z,102105.66
2023-04-05T00:55:10.132Z,102101.06
2023-04-05T00:57:39.979Z,102103.41
2023-04-05T01:00:12.062Z,102100.38
2023-04-05T01:02:55.863Z,102095.19
2023-04-05T01:05:38.291Z,102104.97
2023-04-05T01:08:14.797Z,102095.34
2023-04-05T01:10:49.353Z,102092.22
2023-04-05T01:13:19.330Z,102095.25
2023-04-05T01:15:48.719Z,102095.75
2023-04-05T01:18:22.083Z,102100.78
2023-04-05T01:21:00.446Z,102095.13
2023-04-05T01:23:40.658Z,102089.66
2023-04-05T01:26:33.720Z,102091.28
2023-04-05T01:29:30.899Z,102091.81
2023-04-05T01:32:05.801Z,102089.16
2023-04-05T01:34:42.792Z,102080.50
2023-04-05T01:37:17.854Z,102080.03
2023-04-05T01:39:49.093Z,102079.16
2023-04-05T01:42:24.881Z,102078.03
2023-04-05T01:44:54.648Z,102069.22
2023-04-05T01:47:29.700Z,102075.22
2023-04-05T01:49:59.076Z,102067.22
2023-04-05T01:52:28.371Z,102058.06
2023-04-05T01:54:57.686Z,102065.84
2023-04-05T01:57:27.082Z,102055.53
2023-04-05T01:59:56.456Z,102046.53
2023-04-05T02:02:25.912Z,102038.44
2023-04-05T02:04:57.888Z,102043.25
2023-04-05T02:07:27.389Z,102041.97
2023-04-05T02:09:56.692Z,102038.97
2023-04-05T02:12:26.025Z,102036.97
2023-04-05T02:14:55.353Z,102031.63
2023-04-05T02:17:24.692Z,102027.63
2023-04-05T02:19:54.001Z,102021.69
2023-04-05T02:22:25.903Z,102029.34
2023-04-05T02:24:55.441Z,102024.38
2023-04-05T02:27:24.772Z,102024.34
2023-04-05T02:29:55.886Z,102024.34
2023-04-05T02:32:25.260Z,102024.84
2023-04-05T02:34:54.651Z,102024.56
2023-04-05T02:37:27.334Z,102017.22
2023-04-05T02:39:56.855Z,102014.56
2023-04-05T02:42:26.329Z,102013.78
2023-04-05T02:44:56.648Z,102012.59
2023-04-05T02:47:25.994Z,102011.75
2023-04-05T02:49:55.334Z,102009.56
2023-04-05T02:52:27.231Z,102017.59
2023-04-05T02:54:56.535Z,102018.47
2023-04-05T02:57:26.014Z,102020.13
2023-04-05T02:59:55.643Z,102025.47
2023-04-05T03:02:25.008Z,102022.81
2023-04-05T03:04:55.043Z,102024.13
2023-04-05T03:07:27.934Z,102024.94
2023-04-05T03:09:58.238Z,102028.28
2023-04-05T03:12:27.801Z,102015.47
2023-04-05T03:14:57.145Z,102018.97
2023-04-05T03:17:26.553Z,102024.28
2023-04-05T03:19:55.877Z,102019.31
2023-04-05T03:22:28.228Z,102015.78
2023-04-05T03:24:57.595Z,102006.50
2023-04-05T03:27:27.312Z,102015.16
2023-04-05T03:29:56.600Z,102010.66
2023-04-05T03:32:25.938Z,102012.31
2023-04-05T03:34:55.476Z,102012.16
2023-04-05T03:37:27.391Z,102014.00
2023-04-05T03:39:56.844Z,102020.63
2023-04-05T03:42:26.140Z,102005.34
2023-04-05T03:44:56.188Z,102012.84
2023-04-05T03:47:25.702Z,102011.19
2023-04-05T03:49:55.052Z,102007.88
2023-04-05T03:52:27.418Z,102009.84
2023-04-05T03:54:56.764Z,102007.19
2023-04-05T03:57:26.225Z,102005.22
2023-04-05T03:59:55.551Z,102010.00
2023-04-05T04:02:25.226Z,102005.22
2023-04-05T04:04:54.754Z,102001.72
2023-04-05T04:07:26.902Z,102003.19
2023-04-05T04:09:56.664Z,102003.03
2023-04-05T04:12:26.106Z,102000.22
2023-04-05T04:14:55.435Z,102007.69
2023-04-05T04:17:31.407Z,102008.53
2023-04-05T04:20:01.585Z,102012.66
2023-04-05T04:22:33.553Z,102014.66
2023-04-05T04:25:04.718Z,102008.69
2023-04-05T04:27:36.394Z,102009.34
2023-04-05T04:30:06.447Z,102013.84
2023-04-05T04:32:50.313Z,102010.84
2023-04-05T04:35:20.990Z,102015.00
2023-04-05T04:37:55.553Z,102014.84
2023-04-05T04:40:26.035Z,102010.50
2023-04-05T04:42:58.783Z,102010.69
2023-04-05T04:45:29.257Z,102011.84
2023-04-05T04:47:59.973Z,102003.53
2023-04-05T04:50:30.485Z,102013.47
2023-04-05T04:53:02.898Z,102009.81
2023-04-05T04:55:33.677Z,102017.44
2023-04-05T04:58:09.913Z,102019.78
2023-04-05T05:00:42.073Z,102011.31
2023-04-05T05:03:11.703Z,102016.13
2023-04-05T05:05:45.497Z,102017.44
2023-04-05T05:08:20.615Z,102013.16
2023-04-05T05:10:54.456Z,102011.97
2023-04-05T05:13:24.065Z,102009.50
2023-04-05T05:15:53.856Z,102003.66
2023-04-05T05:18:23.272Z,102012.78
2023-04-05T05:20:54.165Z,102009.66
2023-04-05T05:23:26.828Z,101998.34
2023-04-05T05:26:00.951Z,102003.31
2023-04-05T05:28:30.433Z,101992.38
2023-04-05T05:30:59.793Z,101995.84
2023-04-05T05:33:29.244Z,102007.78
2023-04-05T05:35:58.674Z,101999.81
2023-04-05T05:38:30.742Z,101994.66
2023-04-05T05:41:00.659Z,101996.84
2023-04-05T05:43:29.969Z,101991.19
2023-04-05T05:46:03.355Z,101988.84
2023-04-05T05:48:33.406Z,101991.38
2023-04-05T05:51:09.650Z,101992.34
2023-04-05T05:53:42.815Z,101986.88
2023-04-05T05:56:12.141Z,101995.31
2023-04-05T05:58:42.176Z,101993.81
2023-04-05T06:01:12.283Z,101989.03
2023-04-05T06:03:41.737Z,101996.00
2023-04-05T06:06:11.419Z,101990.50
2023-04-05T06:08:43.569Z,101995.69
2023-04-05T06:11:20.281Z,101993.84
2023-04-05T06:13:49.793Z,101990.69
2023-04-05T06:16:19.194Z,101998.84
2023-04-05T06:18:48.705Z,101997.19
2023-04-05T06:21:18.548Z,102000.50
2023-04-05T06:23:50.776Z,101997.53
2023-04-05T06:26:23.089Z,101996.34
2023-04-05T06:28:52.521Z,101993.56
2023-04-05T06:31:23.469Z,101996.84
2023-04-05T06:33:52.844Z,101998.88
2023-04-05T06:36:22.146Z,101993.72
2023-04-05T06:38:56.096Z,101990.91
2023-04-05T06:41:25.424Z,101990.22
2023-04-05T06:43:54.768Z,101986.53
2023-04-05T06:46:24.688Z,101986.06
2023-04-05T06:48:54.482Z,101980.91
2023-04-05T06:51:23.829Z,101975.44
2023-04-05T06:53:55.739Z,101978.94
2023-04-05T06:56:25.039Z,101973.59
2023-04-05T06:58:55.934Z,101979.59
2023-04-05T07:01:26.388Z,101970.28
2023-04-05T07:03:56.299Z,101967.13
2023-04-05T07:06:25.956Z,101968.63
2023-04-05T07:08:58.064Z,101967.78
2023-04-05T07:11:27.412Z,101968.94
2023-04-05T07:13:56.721Z,101966.31
2023-04-05T07:16:26.184Z,101968.16
2023-04-05T07:18:55.564Z,101973.97
2023-04-05T07:21:24.868Z,101974.47
2023-04-05T07:23:56.166Z,101967.34
2023-04-05T07:26:29.072Z,101976.47
2023-04-05T07:28:58.451Z,101964.50
2023-04-05T07:31:27.816Z,101967.31
2023-04-05T07:33:58.251Z,101968.97
2023-04-05T07:36:28.401Z,101974.94
2023-04-05T07:38:57.708Z,101975.09
2023-04-05T07:41:33.619Z,101967.63
2023-04-05T07:44:03.363Z,101971.94
2023-04-05T07:46:33.121Z,101970.88
2023-04-05T07:49:02.437Z,101961.09
2023-04-05T07:51:35.369Z,101963.75
2023-04-05T07:54:05.597Z,101966.97
2023-04-05T07:56:39.708Z,101963.13
2023-04-05T07:59:09.052Z,101964.41
2023-04-05T08:01:38.393Z,101962.31
2023-04-05T08:04:07.866Z,101959.28
2023-04-05T08:06:37.321Z,101955.34
2023-04-05T08:09:08.373Z,101951.50
2023-04-05T08:11:40.536Z,101955.28
2023-04-05T08:14:09.908Z,101944.81
2023-04-05T08:16:39.454Z,101949.19
2023-04-05T08:19:08.913Z,101952.03
2023-04-05T08:21:38.224Z,101947.34
2023-04-05T08:24:08.112Z,101947.00
2023-04-05T08:26:41.879Z,101944.44
2023-04-05T08:29:11.374Z,101949.00
2023-04-05T08:31:40.745Z,101946.03
2023-04-05T08:34:10.209Z,101944.47
2023-04-05T08:36:39.571Z,101940.28
2023-04-05T08:39:08.901Z,101943.28
2023-04-05T08:41:44.747Z,101942.56
2023-04-05T08:44:14.756Z,101946.41
2023-04-05T08:46:46.871Z,101939.59
2023-04-05T08:49:16.226Z,101936.66
2023-04-05T08:51:45.558Z,101935.66
2023-04-05T08:54:14.988Z,101934.78
2023-04-05T08:56:51.653Z,101923.28
2023-04-05T08:59:22.281Z,101929.94
2023-04-05T09:01:53.523Z,101929.66
2023-04-05T09:04:25.022Z,101925.03
2023-04-05T09:06:54.975Z,101923.28
2023-04-05T09:09:25.507Z,101919.31
2023-04-05T09:11:58.575Z,101921.22
2023-04-05T09:14:29.334Z,101917.59
2023-04-05T09:16:59.147Z,101921.81
2023-04-05T09:19:28.514Z,101918.84
2023-04-05T09:22:02.483Z,101912.94
2023-04-05T09:24:37.068Z,101922.41
2023-04-05T09:27:11.443Z,101914.94
2023-04-05T09:29:42.548Z,101920.34
2023-04-05T09:32:13.212Z,101915.63
2023-04-05T09:34:44.053Z,101912.22
2023-04-05T09:37:17.744Z,101923.56
2023-04-05T09:39:49.414Z,101915.16
2023-04-05T09:42:23.198Z,101923.63
2023-04-05T09:44:54.495Z,101916.34
2023-04-05T09:47:25.212Z,101918.50
2023-04-05T09:49:54.712Z,101909.44
2023-04-05T09:52:25.936Z,101916.03
2023-04-05T09:54:56.916Z,101913.59
2023-04-05T09:57:30.755Z,101910.22
2023-04-05T10:00:00.138Z,101906.97
2023-04-05T10:02:39.454Z,101903.41
2023-04-05T10:05:12.511Z,101909.13
2023-04-05T10:07:42.277Z,101908.47
2023-04-05T10:10:13.332Z,101898.25
2023-04-05T10:12:46.809Z,101892.28
2023-04-05T10:15:16.791Z,101899.13
2023-04-05T10:17:55.703Z,101887.75
2023-04-05T10:20:26.673Z,101889.81
2023-04-05T10:23:10.591Z,101884.63
2023-04-05T10:25:52.297Z,101883.81
2023-04-05T10:28:33.943Z,101881.41
2023-04-05T10:31:14.183Z,101886.09
2023-04-05T10:33:48.150Z,101871.06
2023-04-05T10:36:26.394Z,101871.78
2023-04-05T10:39:04.415Z,101870.50
2023-04-05T10:41:38.009Z,101861.44
2023-04-05T10:44:25.015Z,101863.97
2023-04-05T10:46:56.975Z,101854.03
2023-04-05T10:49:35.976Z,101858.66
2023-04-05T10:52:05.758Z,101855.91
2023-04-05T10:54:37.243Z,101848.66
2023-04-05T10:57:10.182Z,101844.81
2023-04-05T10:59:48.995Z,101844.53
2023-04-05T11:02:19.311Z,101850.31
2023-04-05T11:04:48.802Z,101850.34
2023-04-05T11:07:19.338Z,101845.22
2023-04-05T11:09:58.148Z,101840.03
2023-04-05T11:13:00.734Z,101835.94
2023-04-05T11:15:37.307Z,101845.03
2023-04-05T11:18:12.768Z,101829.72
2023-04-05T11:20:53.087Z,101833.66
2023-04-05T11:23:24.969Z,101829.34
2023-04-05T11:25:57.678Z,101826.81
2023-04-05T11:28:28.764Z,101820.00
2023-04-05T11:31:02.166Z,101821.47
2023-04-05T11:34:10.504Z,101812.00
2023-04-05T11:36:42.221Z,101815.28
2023-04-05T11:39:27.362Z,101807.69
2023-04-05T11:41:58.729Z,101806.25
2023-04-05T11:44:28.081Z,101806.22
2023-04-05T11:47:00.042Z,101809.66
2023-04-05T11:49:29.488Z,101803.72
2023-04-05T11:51:58.828Z,101791.75
2023-04-05T11:54:32.575Z,101799.13
2023-04-05T11:57:02.268Z,101799.97
2023-04-05T11:59:35.544Z,101792.50
2023-04-05T12:02:09.365Z,101793.28
2023-04-05T12:04:39.695Z,101790.88
2023-04-05T12:07:16.700Z,101781.97
2023-04-05T12:10:02.535Z,101776.78
2023-04-05T12:12:36.145Z,101779.09
2023-04-05T12:15:09.757Z,101766.69
2023-04-05T12:17:49.987Z,101771.50
2023-04-05T12:20:22.168Z,101773.72
2023-04-05T12:22:52.585Z,101765.28
2023-04-05T12:25:23.122Z,101758.28
2023-04-05T12:27:53.387Z,101764.78
2023-04-05T12:30:24.076Z,101760.06
2023-04-05T12:32:58.276Z,101757.41
2023-04-05T12:35:33.212Z,101751.59
2023-04-05T12:38:03.672Z,101746.28
2023-04-05T12:40:33.130Z,101746.28
2023-04-05T12:43:06.977Z,101743.88
2023-04-05T12:45:43.770Z,101739.94
2023-04-05T12:48:17.288Z,101741.75
2023-04-05T12:50:48.586Z,101739.09
2023-04-05T12:53:23.498Z,101738.19
2023-04-05T12:55:54.156Z,101732.50
2023-04-05T12:58:24.541Z,101732.75
2023-04-05T13:00:53.963Z,101720.69
2023-04-05T13:03:29.251Z,101723.53
2023-04-05T13:05:59.746Z,101712.44
2023-04-05T13:08:29.660Z,101709.94
2023-04-05T13:10:59.057Z,101702.50
2023-04-05T13:13:28.389Z,101698.97
2023-04-05T13:15:57.731Z,101697.38
2023-04-05T13:18:29.711Z,101692.81
2023-04-05T13:20:59.141Z,101685.00
2023-04-05T13:23:28.456Z,101688.69
2023-04-05T13:25:57.810Z,101680.81
2023-04-05T13:28:27.491Z,101690.50
2023-04-05T13:30:56.851Z,101678.56
2023-04-05T13:33:29.198Z,101684.50
2023-04-05T13:35:58.673Z,101673.03
2023-04-05T13:38:28.061Z,101666.91
2023-04-05T13:40:57.431Z,101677.41
2023-04-05T13:43:28.117Z,101675.56
2023-04-05T13:45:57.483Z,101675.94
2023-04-05T13:48:29.458Z,101677.38
2023-04-05T13:50:58.797Z,101665.13
2023-04-05T13:53:28.715Z,101671.50
2023-04-05T13:55:58.158Z,101670.16
2023-04-05T13:58:27.454Z,101666.09
2023-04-05T14:00:57.178Z,101672.34
2023-04-05T14:03:29.683Z,101663.03
2023-04-05T14:05:59.047Z,101663.91
2023-04-05T14:08:28.449Z,101662.72
2023-04-05T14:10:57.782Z,101658.09
2023-04-05T14:13:27.201Z,101665.97
2023-04-05T14:15:56.524Z,101651.56
2023-04-05T14:18:26.179Z,101655.19
2023-04-05T14:20:59.032Z,101653.19
2023-04-05T14:23:29.032Z,101646.56
2023-04-05T14:25:58.328Z,101649.25
2023-04-05T14:28:27.717Z,101654.56
2023-04-05T14:30:58.940Z,101647.56
2023-04-05T14:33:29.378Z,101651.16
2023-04-05T14:36:01.302Z,101645.69
2023-04-05T14:38:30.782Z,101649.03
2023-04-05T14:41:00.118Z,101642.59
2023-04-05T14:43:29.528Z,101642.66
2023-04-05T14:45:58.900Z,101638.66
2023-04-05T14:48:30.322Z,101644.19
2023-04-05T14:51:02.317Z,101645.13
2023-04-05T14:53:31.800Z,101642.09
2023-04-05T14:56:01.241Z,101640.13
2023-04-05T14:58:30.771Z,101644.22
2023-04-05T15:01:00.238Z,101642.16
2023-04-05T15:03:31.060Z,101641.97
2023-04-05T15:06:06.363Z,101633.31
2023-04-05T15:08:36.024Z,101642.56
2023-04-05T15:11:05.373Z,101636.59
2023-04-05T15:13:34.798Z,101636.78
2023-04-05T15:16:04.096Z,101629.06
2023-04-05T15:18:33.400Z,101632.09
2023-04-05T15:21:05.623Z,101626.69
2023-04-05T15:23:35.007Z,101630.84
2023-04-05T15:26:04.322Z,101627.53
2023-04-05T15:28:33.650Z,101627.97
2023-04-05T15:31:02.988Z,101630.44
2023-04-05T15:33:32.345Z,101630.03
2023-04-05T15:36:01.777Z,101623.97
2023-04-05T15:38:33.673Z,101621.78
2023-04-05T15:43:37.919Z,101620.44
2023-04-05T15:46:07.567Z,101615.16
2023-04-05T15:48:36.950Z,101622.16
2023-04-05T15:51:06.468Z,101612.75
2023-04-05T15:53:38.556Z,101613.94
2023-04-05T15:56:08.787Z,101610.19
2023-04-05T15:58:38.099Z,101618.94
2023-04-05T16:01:08.024Z,101607.66
2023-04-05T16:03:37.457Z,101611.44
2023-04-05T16:06:06.977Z,101607.13
2023-04-05T16:08:38.883Z,101606.41
2023-04-05T16:11:09.769Z,101602.53
2023-04-05T16:13:39.235Z,101600.88
2023-04-05T16:16:09.482Z,101601.91
2023-04-05T16:18:38.791Z,101602.66
2023-04-05T16:21:08.121Z,101595.59
2023-04-05T16:23:40.529Z,101594.47
2023-04-05T16:26:09.849Z,101596.53
2023-04-05T16:28:39.155Z,101588.53
2023-04-05T16:31:08.542Z,101593.53
2023-04-05T16:33:38.069Z,101589.66
2023-04-05T16:36:07.613Z,101592.09
2023-04-05T16:38:37.359Z,101589.41
2023-04-05T16:41:09.253Z,101591.81
2023-04-05T16:43:38.605Z,101582.28
2023-04-05T16:46:08.102Z,101587.47
2023-04-05T16:48:37.516Z,101583.75
2023-04-05T16:51:07.361Z,101574.63
2023-04-05T16:53:36.906Z,101581.84
2023-04-05T16:56:09.396Z,101577.09
2023-04-05T16:58:38.871Z,101574.63
2023-04-05T17:01:08.430Z,101580.88
2023-04-05T17:03:37.854Z,101575.84
2023-04-05T17:06:08.097Z,101574.47
2023-04-05T17:08:37.442Z,101572.13
2023-04-05T17:11:09.486Z,101573.16
2023-04-05T17:13:38.811Z,101577.22
2023-04-05T17:16:09.226Z,101579.25
2023-04-05T17:18:38.600Z,101576.31
2023-04-05T17:21:08.914Z,101575.31
2023-04-05T17:23:38.216Z,101573.16
2023-04-05T17:26:10.167Z,101571.34
2023-04-05T17:28:39.502Z,101572.94
2023-04-05T17:31:08.888Z,101562.59
2023-04-05T17:33:38.206Z,101575.63
2023-04-05T17:36:08.300Z,101577.41
2023-04-05T17:38:37.674Z,101565.94
2023-04-05T17:41:09.733Z,101572.31
2023-04-05T17:43:39.141Z,101573.56
2023-04-05T17:46:09.489Z,101575.56
2023-04-05T17:48:40.158Z,101575.34
2023-04-05T17:51:10.940Z,101576.47
2023-04-05T17:53:40.457Z,101576.06
2023-04-05T17:56:12.363Z,101585.97
2023-04-05T17:58:41.796Z,101580.28
2023-04-05T18:01:14.846Z,101574.88
2023-04-05T18:03:45.319Z,101589.50
2023-04-05T18:06:16.569Z,101581.59
2023-04-05T18:08:46.112Z,101589.28
2023-04-05T18:11:18.065Z,101590.34
2023-04-05T18:13:47.619Z,101590.06
2023-04-05T18:16:16.996Z,101596.75
2023-04-05T18:18:46.646Z,101595.69
2023-04-05T18:21:16.020Z,101602.88
2023-04-05T18:23:45.463Z,101607.03
2023-04-05T18:26:15.041Z,101595.44
2023-04-05T18:28:47.792Z,101601.88
2023-04-05T18:31:17.182Z,101597.63
2023-04-05T18:33:46.485Z,101601.56
2023-04-05T18:36:15.856Z,101604.34
2023-04-05T18:38:45.949Z,101602.34
2023-04-05T18:41:15.377Z,101607.44
2023-04-05T18:43:48.163Z,101603.34
2023-04-05T18:46:18.853Z,101605.19
2023-04-05T18:48:54.351Z,101610.34
2023-04-05T18:51:24.392Z,101609.31
2023-04-05T18:53:53.732Z,101606.25
2023-04-05T18:56:23.084Z,101610.16
2023-04-05T18:58:54.992Z,101614.47
2023-04-05T19:01:24.598Z,101614.69
2023-04-05T19:03:53.933Z,101611.59
2023-04-05T19:06:23.269Z,101614.94
2023-04-05T19:08:52.637Z,101614.91
2023-04-05T19:11:22.162Z,101617.66
2023-04-05T19:13:54.017Z,101623.47
2023-04-05T19:16:25.986Z,101629.47
2023-04-05T19:18:56.029Z,101637.31
2023-04-05T19:21:25.461Z,101631.44
2023-04-05T19:23:54.796Z,101631.03
2023-04-05T19:26:24.561Z,101640.09
2023-04-05T19:28:53.974Z,101633.91
2023-04-05T19:31:26.659Z,101627.47
2023-04-05T19:33:56.161Z,101627.66
2023-04-05T19:36:26.166Z,101630.97
2023-04-05T19:38:55.524Z,101627.44
2023-04-05T19:41:32.581Z,101628.09
2023-04-05T19:44:02.167Z,101634.72
2023-04-05T19:46:34.113Z,101631.78
2023-04-05T19:49:10.114Z,101626.88
2023-04-05T19:51:39.643Z,101633.28
2023-04-05T19:54:13.162Z,101624.00
2023-04-05T19:56:42.980Z,101631.56
2023-04-05T19:59:31.965Z,101631.22
2023-04-05T20:02:05.507Z,101627.25
2023-04-05T20:04:39.085Z,101623.69
2023-04-05T20:07:10.788Z,101615.28
2023-04-05T20:09:41.172Z,101617.53
2023-04-05T20:12:13.253Z,101616.06
2023-04-05T20:14:45.951Z,101618.59
2023-04-05T20:17:19.380Z,101624.13
2023-04-05T20:20:00.898Z,101617.97
2023-04-05T20:22:31.357Z,101621.03
2023-04-05T20:25:00.785Z,101612.81
2023-04-05T20:27:30.154Z,101614.22
2023-04-05T20:29:59.601Z,101613.25
2023-04-05T20:32:32.083Z,101614.69
2023-04-05T20:35:01.446Z,101618.59
2023-04-05T20:37:30.744Z,101608.31
2023-04-05T20:40:00.048Z,101610.41
2023-04-05T20:42:31.613Z,101608.94
2023-04-05T20:45:00.900Z,101608.72
2023-04-05T20:47:32.850Z,101613.03
2023-04-05T20:50:02.163Z,101615.28
2023-04-05T20:52:31.781Z,101611.81
2023-04-05T20:55:01.823Z,101606.28
2023-04-05T20:57:31.427Z,101608.13
2023-04-05T21:00:02.289Z,101609.28
2023-04-05T21:02:34.379Z,101609.53
2023-04-05T21:05:04.143Z,101607.50
2023-04-05T21:07:34.439Z,101604.41
2023-04-05T21:10:03.738Z,101604.03
2023-04-05T21:12:34.849Z,101606.72
2023-04-05T21:15:04.183Z,101606.75
2023-04-05T21:17:36.161Z,101604.44
2023-04-05T21:20:05.613Z,101603.00
2023-04-05T21:22:35.002Z,101610.00
2023-04-05T21:25:05.689Z,101607.72
2023-04-05T21:27:35.030Z,101607.53
2023-04-05T21:30:04.344Z,101605.50
2023-04-05T21:32:36.295Z,101603.19
2023-04-05T21:35:05.644Z,101601.53
2023-04-05T21:37:35.137Z,101608.31
2023-04-05T21:40:05.018Z,101602.75
2023-04-05T21:42:34.960Z,101595.16
2023-04-05T21:45:05.098Z,101592.03
2023-04-05T21:47:37.526Z,101590.19
2023-04-05T21:50:08.578Z,101598.44
2023-04-05T21:52:38.419Z,101589.56
2023-04-05T21:55:08.688Z,101588.13
2023-04-05T21:57:38.269Z,101589.38
2023-04-05T22:00:12.920Z,101589.16
2023-04-05T22:02:45.524Z,101584.00
2023-04-05T22:05:25.726Z,101588.34
2023-04-05T22:08:03.862Z,101583.19
2023-04-05T22:10:33.453Z,101579.25
2023-04-05T22:13:02.824Z,101573.53
2023-04-05T22:15:32.251Z,101585.16
2023-04-05T22:18:05.705Z,101574.44
2023-04-05T22:20:35.364Z,101580.19
2023-04-05T22:23:04.707Z,101574.63
2023-04-05T22:25:34.069Z,101573.19
2023-04-05T22:28:03.378Z,101575.66
2023-04-05T22:30:43.823Z,101572.19
2023-04-05T22:33:16.376Z,101575.66
2023-04-05T22:35:45.748Z,101568.88
2023-04-05T22:38:15.137Z,101571.13
2023-04-05T22:40:45.418Z,101568.25
2023-04-05T22:43:14.920Z,101566.41
2023-04-05T22:45:44.316Z,101570.34
2023-04-05T22:48:16.242Z,101564.34
2023-04-05T22:50:45.653Z,101566.41
2023-04-05T22:53:14.966Z,101571.97
2023-04-05T22:55:44.299Z,101568.25
2023-04-05T22:58:13.639Z,101565.56
2023-04-05T23:00:43.510Z,101565.34
2023-04-05T23:03:12.887Z,101561.88
2023-04-05T23:05:45.107Z,101559.59
2023-04-05T23:08:14.419Z,101562.25
2023-04-05T23:10:43.748Z,101559.19
2023-04-05T23:13:13.089Z,101563.72
2023-04-05T23:15:42.505Z,101553.63
2023-04-05T23:18:11.913Z,101557.31
2023-04-05T23:20:43.833Z,101555.28
2023-04-05T23:23:13.771Z,101548.88
2023-04-05T23:25:43.068Z,101558.75
2023-04-05T23:28:12.408Z,101560.00
2023-04-05T23:30:41.732Z,101551.13
2023-04-05T23:33:13.501Z,101545.16
2023-04-05T23:35:46.071Z,101552.78
2023-04-05T23:38:15.407Z,101541.06
2023-04-05T23:40:44.729Z,101546.78
2023-04-05T23:43:14.157Z,101545.78
2023-04-05T23:45:43.475Z,101546.19
2023-04-05T23:48:12.801Z,101538.34
2023-04-05T23:50:42.873Z,101541.00
2023-04-05T23:53:14.776Z,101539.56
2023-04-05T23:55:44.086Z,101541.19
2023-04-05T23:58:13.397Z,101540.16
